createdAt,value
2022-11-05T00:00:32.135Z,10.46
2022-11-05T00:01:32.160Z,10.49
2022-11-05T00:02:32.043Z,10.51
2022-11-05T00:03:32.069Z,10.51
2022-11-05T00:04:31.980Z,10.46
2022-11-05T00:05:31.910Z,10.58
2022-11-05T00:06:31.910Z,10.53
2022-11-05T00:07:31.822Z,10.49
2022-11-05T00:08:31.770Z,10.51
2022-11-05T00:09:31.725Z,10.64
2022-11-05T00:10:31.703Z,10.62
2022-11-05T00:11:31.629Z,10.65
2022-11-05T00:12:31.586Z,10.65
2022-11-05T00:13:31.541Z,10.55
2022-11-05T00:14:31.494Z,10.49
2022-11-05T00:15:31.451Z,10.57
2022-11-05T00:16:31.441Z,10.58
2022-11-05T00:17:31.360Z,10.55
2022-11-05T00:18:31.313Z,10.57
2022-11-05T00:19:31.265Z,10.55
2022-11-05T00:20:31.221Z,10.43
2022-11-05T00:21:31.175Z,10.51
2022-11-05T00:22:31.141Z,10.55
2022-11-05T00:23:31.083Z,10.55
2022-11-05T00:24:31.038Z,10.67
2022-11-05T00:25:30.987Z,10.55
2022-11-05T00:26:30.942Z,10.61
2022-11-05T00:27:30.900Z,10.55
2022-11-05T00:28:30.879Z,10.51
2022-11-05T00:29:30.815Z,10.51
2022-11-05T00:30:30.762Z,10.51
2022-11-05T00:31:30.714Z,10.62
2022-11-05T00:32:30.696Z,10.64
2022-11-05T00:33:30.625Z,10.71
2022-11-05T00:34:30.581Z,10.64
2022-11-05T00:35:30.545Z,10.51
2022-11-05T00:36:30.488Z,10.43
2022-11-05T00:37:30.488Z,10.39
2022-11-05T00:38:30.409Z,10.34
2022-11-05T00:39:30.347Z,10.31
2022-11-05T00:40:30.304Z,10.38
2022-11-05T00:41:30.257Z,10.46
2022-11-05T00:42:30.232Z,10.42
2022-11-05T00:43:30.163Z,10.48
2022-11-05T00:44:30.122Z,10.33
2022-11-05T00:45:30.079Z,10.49
2022-11-05T00:46:30.031Z,10.42
2022-11-05T00:47:29.983Z,10.36
2022-11-05T00:48:29.955Z,10.43
2022-11-05T00:49:29.893Z,10.57
2022-11-05T00:50:29.846Z,10.51
2022-11-05T00:51:29.802Z,10.53
2022-11-05T00:52:29.754Z,10.51
2022-11-05T00:53:29.718Z,10.64
2022-11-05T00:54:29.827Z,10.57
2022-11-05T00:55:29.614Z,10.57
2022-11-05T00:56:29.571Z,10.59
2022-11-05T00:57:29.540Z,10.64
2022-11-05T00:58:29.476Z,10.61
2022-11-05T00:59:29.436Z,10.67
2022-11-05T01:00:29.527Z,10.59
2022-11-05T01:01:29.447Z,10.55
2022-11-05T01:02:29.401Z,10.64
2022-11-05T01:03:29.245Z,10.55
2022-11-05T01:04:29.206Z,10.61
2022-11-05T01:05:29.156Z,10.49
2022-11-05T01:06:29.132Z,10.51
2022-11-05T01:07:29.068Z,10.55
2022-11-05T01:08:29.019Z,10.55
2022-11-05T01:09:28.976Z,10.57
2022-11-05T01:10:28.928Z,10.48
2022-11-05T01:11:28.907Z,10.64
2022-11-05T01:12:28.840Z,10.64
2022-11-05T01:13:28.790Z,10.68
2022-11-05T01:14:28.749Z,10.75
2022-11-05T01:15:28.702Z,10.82
2022-11-05T01:16:28.656Z,10.82
2022-11-05T01:17:28.631Z,10.79
2022-11-05T01:18:28.566Z,10.87
2022-11-05T01:19:28.521Z,10.82
2022-11-05T01:20:28.485Z,10.90
2022-11-05T01:21:28.428Z,10.83
2022-11-05T01:22:28.380Z,10.89
2022-11-05T01:23:28.341Z,10.82
2022-11-05T01:24:28.291Z,10.87
2022-11-05T01:25:28.243Z,10.92
2022-11-05T01:26:28.214Z,10.90
2022-11-05T01:27:28.153Z,11.05
2022-11-05T01:28:28.172Z,11.02
2022-11-05T01:29:28.064Z,11.05
2022-11-05T01:30:28.013Z,11.01
2022-11-05T01:31:27.974Z,10.92
2022-11-05T01:32:27.967Z,10.97
2022-11-05T01:33:27.885Z,11.02
2022-11-05T01:34:27.835Z,10.90
2022-11-05T01:35:27.786Z,10.90
2022-11-05T01:36:27.738Z,11.00
2022-11-05T01:37:27.698Z,10.97
2022-11-05T01:38:27.678Z,10.94
2022-11-05T01:39:27.606Z,10.95
2022-11-05T01:40:27.671Z,10.89
2022-11-05T01:41:27.522Z,10.92
2022-11-05T01:42:27.471Z,10.86
2022-11-05T01:43:27.422Z,10.90
2022-11-05T01:44:27.411Z,10.86
2022-11-05T01:45:27.336Z,10.97
2022-11-05T01:46:27.309Z,10.76
2022-11-05T01:47:27.241Z,10.72
2022-11-05T01:48:27.198Z,10.62
2022-11-05T01:49:27.153Z,10.53
2022-11-05T01:50:27.124Z,10.49
2022-11-05T01:51:27.060Z,10.49
2022-11-05T01:52:27.021Z,10.27
2022-11-05T01:53:26.966Z,10.28
2022-11-05T01:54:26.920Z,10.23
2022-11-05T01:55:26.874Z,10.30
2022-11-05T01:56:26.860Z,10.27
2022-11-05T01:57:26.780Z,10.17
2022-11-05T01:58:26.736Z,10.21
2022-11-05T01:59:26.691Z,10.18
2022-11-05T02:00:26.647Z,10.27
2022-11-05T02:01:26.750Z,10.23
2022-11-05T02:02:26.637Z,10.12
2022-11-05T02:03:26.508Z,10.06
2022-11-05T02:04:26.491Z,10.07
2022-11-05T02:05:26.413Z,10.06
2022-11-05T02:06:26.371Z,10.12
2022-11-05T02:07:26.330Z,10.03
2022-11-05T02:08:26.277Z,10.03
2022-11-05T02:09:26.235Z,10.06
2022-11-05T02:10:26.226Z,10.03
2022-11-05T02:11:26.138Z,10.00
2022-11-05T02:12:26.101Z,9.92
2022-11-05T02:13:26.045Z,9.95
2022-11-05T02:14:35.323Z,10.02
2022-11-05T02:15:25.955Z,9.81
2022-11-05T02:16:25.930Z,9.82
2022-11-05T02:17:25.863Z,9.85
2022-11-05T02:18:25.814Z,9.66
2022-11-05T02:19:25.767Z,9.82
2022-11-05T02:20:25.721Z,9.77
2022-11-05T02:21:25.679Z,9.80
2022-11-05T02:22:25.654Z,9.80
2022-11-05T02:23:25.584Z,9.87
2022-11-05T02:24:25.541Z,9.66
2022-11-05T02:25:25.536Z,9.74
2022-11-05T02:26:25.447Z,9.74
2022-11-05T02:27:25.399Z,9.72
2022-11-05T02:28:25.350Z,9.72
2022-11-05T02:29:25.309Z,9.82
2022-11-05T02:30:25.263Z,9.82
2022-11-05T02:31:25.232Z,9.74
2022-11-05T02:32:25.166Z,9.73
2022-11-05T02:33:25.125Z,9.82
2022-11-05T02:34:25.074Z,9.85
2022-11-05T02:35:25.028Z,9.90
2022-11-05T02:36:24.984Z,9.82
2022-11-05T02:37:24.954Z,9.77
2022-11-05T02:38:24.888Z,9.77
2022-11-05T02:39:24.845Z,9.82
2022-11-05T02:40:24.797Z,9.84
2022-11-05T02:41:24.753Z,9.90
2022-11-05T02:42:24.709Z,9.85
2022-11-05T02:43:24.680Z,9.88
2022-11-05T02:44:24.612Z,9.84
2022-11-05T02:45:24.566Z,9.84
2022-11-05T02:46:24.522Z,9.84
2022-11-05T02:47:24.475Z,9.85
2022-11-05T02:48:24.431Z,9.87
2022-11-05T02:49:24.493Z,9.88
2022-11-05T02:50:24.340Z,9.95
2022-11-05T02:51:24.291Z,9.95
2022-11-05T02:52:24.242Z,9.94
2022-11-05T02:53:24.201Z,9.95
2022-11-05T02:54:24.150Z,9.92
2022-11-05T02:55:24.138Z,9.94
2022-11-05T02:56:24.063Z,10.00
2022-11-05T02:57:24.027Z,10.03
2022-11-05T02:58:23.968Z,10.03
2022-11-05T02:59:23.927Z,10.03
2022-11-05T03:00:23.878Z,10.00
2022-11-05T03:01:23.953Z,10.07
2022-11-05T03:02:23.867Z,10.09
2022-11-05T03:03:23.740Z,10.02
2022-11-05T03:04:23.688Z,10.03
2022-11-05T03:05:23.649Z,10.03
2022-11-05T03:06:23.604Z,9.92
2022-11-05T03:07:23.568Z,10.00
2022-11-05T03:08:23.510Z,10.03
2022-11-05T03:09:23.461Z,9.94
2022-11-05T03:10:23.416Z,9.94
2022-11-05T03:11:23.373Z,10.03
2022-11-05T03:12:23.329Z,9.91
2022-11-05T03:13:23.308Z,9.97
2022-11-05T03:14:23.233Z,9.95
2022-11-05T03:15:23.191Z,9.99
2022-11-05T03:16:23.139Z,9.91
2022-11-05T03:17:23.097Z,9.84
2022-11-05T03:18:23.053Z,9.85
2022-11-05T03:19:23.026Z,9.85
2022-11-05T03:20:22.956Z,9.85
2022-11-05T03:21:22.915Z,9.97
2022-11-05T03:22:22.866Z,10.06
2022-11-05T03:23:22.847Z,9.97
2022-11-05T03:24:22.870Z,9.88
2022-11-05T03:25:22.729Z,9.99
2022-11-05T03:26:22.682Z,9.91
2022-11-05T03:27:22.639Z,9.91
2022-11-05T03:28:22.594Z,9.92
2022-11-05T03:29:22.546Z,9.91
2022-11-05T03:30:22.536Z,9.99
2022-11-05T03:31:22.458Z,9.92
2022-11-05T03:32:22.405Z,9.92
2022-11-05T03:33:22.367Z,9.90
2022-11-05T03:34:22.316Z,9.80
2022-11-05T03:35:22.272Z,9.99
2022-11-05T03:36:22.246Z,9.95
2022-11-05T03:37:22.178Z,9.91
2022-11-05T03:38:22.151Z,9.88
2022-11-05T03:39:22.087Z,9.72
2022-11-05T03:40:22.040Z,9.73
2022-11-05T03:41:21.997Z,9.58
2022-11-05T03:42:22.968Z,9.45
2022-11-05T03:43:21.900Z,9.51
2022-11-05T03:44:21.868Z,9.45
2022-11-05T03:45:21.814Z,9.55
2022-11-05T03:46:21.762Z,9.48
2022-11-05T03:47:21.715Z,9.54
2022-11-05T03:48:21.781Z,9.48
2022-11-05T03:49:21.627Z,9.49
2022-11-05T03:50:21.604Z,9.34
2022-11-05T03:51:21.534Z,9.47
2022-11-05T03:52:21.494Z,9.42
2022-11-05T03:53:21.440Z,9.49
2022-11-05T03:54:21.394Z,9.48
2022-11-05T03:55:21.349Z,9.52
2022-11-05T03:56:21.318Z,9.56
2022-11-05T03:57:21.253Z,9.67
2022-11-05T03:58:21.205Z,9.58
2022-11-05T03:59:21.168Z,9.56
2022-11-05T04:00:21.115Z,9.72
2022-11-05T04:01:21.154Z,9.70
2022-11-05T04:02:21.158Z,9.55
2022-11-05T04:03:20.978Z,9.54
2022-11-05T04:04:20.932Z,9.54
2022-11-05T04:05:20.885Z,9.54
2022-11-05T04:06:20.842Z,9.55
2022-11-05T04:07:20.791Z,9.42
2022-11-05T04:08:20.768Z,9.42
2022-11-05T04:09:20.706Z,9.51
2022-11-05T04:10:20.651Z,9.52
2022-11-05T04:11:20.611Z,9.66
2022-11-05T04:12:20.561Z,9.69
2022-11-05T04:13:20.518Z,9.63
2022-11-05T04:14:20.487Z,9.70
2022-11-05T04:15:20.423Z,9.64
2022-11-05T04:16:20.378Z,9.58
2022-11-05T04:17:20.332Z,9.56
2022-11-05T04:18:20.286Z,9.54
2022-11-05T04:19:23.743Z,9.51
2022-11-05T04:20:20.217Z,9.52
2022-11-05T04:21:20.149Z,9.47
2022-11-05T04:22:20.097Z,9.52
2022-11-05T04:23:20.055Z,9.56
2022-11-05T04:24:20.007Z,9.70
2022-11-05T04:25:19.959Z,9.67
2022-11-05T04:26:20.026Z,9.55
2022-11-05T04:27:19.872Z,9.64
2022-11-05T04:28:19.824Z,9.55
2022-11-05T04:29:19.778Z,9.52
2022-11-05T04:30:19.783Z,9.49
2022-11-05T04:31:19.685Z,9.45
2022-11-05T04:32:19.674Z,9.48
2022-11-05T04:33:19.593Z,9.40
2022-11-05T04:34:19.548Z,9.34
2022-11-05T04:35:19.501Z,9.37
2022-11-05T04:36:19.456Z,9.45
2022-11-05T04:37:19.416Z,9.42
2022-11-05T04:38:19.390Z,9.51
2022-11-05T04:39:19.312Z,9.45
2022-11-05T04:40:19.272Z,9.49
2022-11-05T04:41:19.225Z,9.47
2022-11-05T04:42:19.175Z,9.44
2022-11-05T04:43:19.472Z,9.51
2022-11-05T04:44:19.107Z,9.39
2022-11-05T04:45:19.038Z,9.56
2022-11-05T04:46:18.992Z,9.51
2022-11-05T04:47:18.950Z,9.52
2022-11-05T04:48:18.899Z,9.63
2022-11-05T04:49:18.878Z,9.69
2022-11-05T04:50:18.807Z,9.59
2022-11-05T04:51:18.761Z,9.39
2022-11-05T04:52:18.769Z,9.55
2022-11-05T04:53:18.668Z,9.55
2022-11-05T04:54:18.617Z,9.55
2022-11-05T04:55:18.594Z,9.51
2022-11-05T04:56:18.530Z,9.59
2022-11-05T04:57:18.482Z,9.59
2022-11-05T04:58:18.436Z,9.56
2022-11-05T04:59:18.385Z,9.56
2022-11-05T05:00:18.340Z,9.64
2022-11-05T05:01:18.440Z,9.73
2022-11-05T05:02:18.353Z,9.64
2022-11-05T05:03:18.208Z,9.70
2022-11-05T05:04:18.158Z,9.56
2022-11-05T05:05:18.117Z,9.59
2022-11-05T05:06:18.065Z,9.74
2022-11-05T05:07:18.026Z,9.67
2022-11-05T05:08:17.997Z,9.52
2022-11-05T05:09:17.933Z,9.54
2022-11-05T05:10:17.888Z,9.45
2022-11-05T05:11:17.836Z,9.40
2022-11-05T05:12:17.786Z,9.44
2022-11-05T05:13:17.740Z,9.48
2022-11-05T05:14:17.717Z,9.52
2022-11-05T05:15:17.655Z,9.51
2022-11-05T05:16:17.616Z,9.44
2022-11-05T05:17:17.560Z,9.42
2022-11-05T05:18:17.507Z,9.47
2022-11-05T05:19:17.486Z,9.37
2022-11-05T05:20:17.419Z,9.36
2022-11-05T05:21:17.371Z,9.44
2022-11-05T05:22:17.327Z,9.40
2022-11-05T05:23:17.277Z,9.55
2022-11-05T05:24:17.232Z,9.62
2022-11-05T05:25:17.301Z,9.64
2022-11-05T05:26:17.137Z,9.45
2022-11-05T05:27:17.096Z,9.37
2022-11-05T05:28:17.048Z,9.31
2022-11-05T05:29:17.002Z,9.30
2022-11-05T05:30:16.952Z,9.30
2022-11-05T05:31:16.920Z,9.33
2022-11-05T05:32:16.857Z,9.42
2022-11-05T05:33:16.816Z,9.36
2022-11-05T05:34:16.769Z,9.36
2022-11-05T05:35:16.721Z,9.36
2022-11-05T05:36:16.679Z,9.44
2022-11-05T05:37:16.651Z,9.42
2022-11-05T05:38:16.580Z,9.47
2022-11-05T05:39:16.537Z,9.45
2022-11-05T05:40:16.489Z,9.42
2022-11-05T05:41:16.446Z,9.42
2022-11-05T05:42:16.427Z,9.52
2022-11-05T05:43:16.375Z,9.48
2022-11-05T05:44:16.303Z,9.48
2022-11-05T05:45:16.258Z,9.45
2022-11-05T05:46:16.215Z,9.45
2022-11-05T05:47:16.166Z,9.47
2022-11-05T05:48:16.137Z,9.49
2022-11-05T05:49:16.069Z,9.40
2022-11-05T05:50:16.024Z,9.58
2022-11-05T05:51:15.983Z,9.58
2022-11-05T05:52:15.938Z,9.55
2022-11-05T05:53:15.886Z,9.54
2022-11-05T05:54:15.861Z,9.54
2022-11-05T05:55:15.797Z,9.62
2022-11-05T05:56:15.788Z,9.54
2022-11-05T05:57:15.699Z,9.56
2022-11-05T05:58:15.659Z,9.70
2022-11-05T05:59:15.613Z,9.72
2022-11-05T06:03:48.339Z,9.55
2022-11-05T06:04:48.248Z,9.51
2022-11-05T06:05:48.198Z,9.44
2022-11-05T06:06:48.153Z,9.40
2022-11-05T06:07:48.108Z,9.29
2022-11-05T06:08:48.072Z,9.31
2022-11-05T06:09:48.009Z,9.31
2022-11-05T06:10:48.013Z,9.31
2022-11-05T06:11:47.918Z,9.44
2022-11-05T06:12:47.870Z,9.44
2022-11-05T06:13:47.825Z,9.40
2022-11-05T06:14:47.794Z,9.39
2022-11-05T06:15:47.732Z,9.45
2022-11-05T06:16:47.686Z,9.48
2022-11-05T06:17:47.636Z,9.39
2022-11-05T06:18:47.590Z,9.44
2022-11-05T06:19:47.543Z,9.37
2022-11-05T06:20:47.509Z,9.42
2022-11-05T06:21:47.448Z,9.48
2022-11-05T06:22:47.404Z,9.54
2022-11-05T06:23:47.354Z,9.44
2022-11-05T06:24:47.308Z,9.48
2022-11-05T06:25:47.262Z,9.42
2022-11-05T06:26:47.241Z,9.42
2022-11-05T06:27:47.195Z,9.40
2022-11-05T06:28:47.124Z,9.48
2022-11-05T06:29:47.083Z,9.42
2022-11-05T06:30:47.057Z,9.56
2022-11-05T06:31:46.983Z,9.49
2022-11-05T06:32:46.963Z,9.55
2022-11-05T06:33:46.892Z,9.49
2022-11-05T06:34:46.847Z,9.54
2022-11-05T06:35:46.797Z,9.45
2022-11-05T06:36:46.754Z,9.52
2022-11-05T06:37:46.707Z,9.47
2022-11-05T06:38:46.683Z,9.48
2022-11-05T06:39:46.613Z,9.44
2022-11-05T06:40:46.567Z,9.47
2022-11-05T06:42:12.013Z,9.42
2022-11-05T06:42:46.474Z,9.42
2022-11-05T06:43:46.423Z,9.44
2022-11-05T06:44:46.407Z,9.52
2022-11-05T06:45:46.330Z,9.49
2022-11-05T06:46:48.589Z,9.52
2022-11-05T06:47:46.243Z,9.48
2022-11-05T06:48:46.192Z,9.45
2022-11-05T06:49:46.149Z,9.51
2022-11-05T06:50:46.121Z,9.51
2022-11-05T06:51:46.053Z,9.48
2022-11-05T06:52:46.005Z,9.36
2022-11-05T06:53:45.969Z,9.42
2022-11-05T06:54:45.914Z,9.44
2022-11-05T06:55:45.866Z,9.47
2022-11-05T06:56:45.851Z,9.47
2022-11-05T06:57:45.771Z,9.37
2022-11-05T06:58:45.731Z,9.48
2022-11-05T06:59:45.680Z,9.51
2022-11-05T07:00:45.700Z,9.47
2022-11-05T07:01:45.656Z,9.47
2022-11-05T07:02:45.583Z,9.47
2022-11-05T07:03:45.495Z,9.54
2022-11-05T07:04:45.446Z,9.44
2022-11-05T07:05:45.399Z,9.40
2022-11-05T07:06:45.358Z,9.48
2022-11-05T07:07:45.328Z,9.47
2022-11-05T07:08:45.280Z,9.56
2022-11-05T07:09:45.213Z,9.56
2022-11-05T07:10:45.170Z,9.66
2022-11-05T07:11:45.122Z,9.69
2022-11-05T07:12:45.077Z,9.80
2022-11-05T07:13:45.029Z,9.82
2022-11-05T07:14:45.011Z,9.74
2022-11-05T07:15:44.942Z,9.72
2022-11-05T07:16:44.897Z,9.77
2022-11-05T07:17:44.850Z,9.85
2022-11-05T07:18:44.834Z,9.77
2022-11-05T07:19:44.757Z,9.85
2022-11-05T07:20:44.706Z,9.85
2022-11-05T07:21:44.661Z,9.87
2022-11-05T07:22:44.614Z,9.87
2022-11-05T07:23:44.566Z,9.94
2022-11-05T07:24:44.555Z,9.94
2022-11-05T07:25:44.478Z,9.94
2022-11-05T07:26:44.427Z,9.92
2022-11-05T07:27:44.384Z,9.82
2022-11-05T07:28:44.334Z,9.90
2022-11-05T07:29:44.296Z,9.82
2022-11-05T07:30:44.279Z,9.87
2022-11-05T07:31:44.199Z,9.87
2022-11-05T07:32:44.156Z,9.88
2022-11-05T07:33:44.106Z,9.88
2022-11-05T07:34:44.060Z,9.87
2022-11-05T07:35:44.017Z,9.87
2022-11-05T07:36:43.989Z,9.81
2022-11-05T07:37:43.921Z,9.80
2022-11-05T07:38:43.877Z,9.82
2022-11-05T07:39:43.828Z,9.91
2022-11-05T07:40:43.781Z,9.90
2022-11-05T07:41:43.737Z,10.00
2022-11-05T07:42:43.716Z,9.91
2022-11-05T07:43:43.672Z,10.03
2022-11-05T07:44:43.622Z,10.03
2022-11-05T07:45:43.550Z,10.03
2022-11-05T07:46:43.558Z,10.06
2022-11-05T07:47:43.455Z,10.15
2022-11-05T07:48:43.410Z,10.23
2022-11-05T07:49:43.482Z,10.27
2022-11-05T07:50:43.321Z,10.24
2022-11-05T07:51:43.360Z,10.30
2022-11-05T07:52:43.232Z,10.20
2022-11-05T07:53:45.443Z,10.17
2022-11-05T07:54:43.141Z,10.28
2022-11-05T07:55:43.117Z,10.23
2022-11-05T07:56:43.046Z,10.25
2022-11-05T07:57:43.002Z,10.34
2022-11-05T07:58:42.953Z,10.42
2022-11-05T07:59:42.933Z,10.42
2022-11-05T08:00:43.017Z,10.30
2022-11-05T08:01:43.038Z,10.31
2022-11-05T08:02:42.959Z,10.34
2022-11-05T08:03:42.818Z,10.30
2022-11-05T08:04:42.677Z,10.27
2022-11-05T08:05:42.667Z,10.27
2022-11-05T08:06:42.592Z,10.42
2022-11-05T08:07:42.546Z,10.27
2022-11-05T08:08:42.493Z,10.39
2022-11-05T08:09:42.456Z,10.46
2022-11-05T08:10:42.405Z,10.45
2022-11-05T08:11:42.380Z,10.45
2022-11-05T08:12:42.311Z,10.46
2022-11-05T08:13:42.266Z,10.48
2022-11-05T08:14:51.485Z,10.51
2022-11-05T08:15:42.177Z,10.42
2022-11-05T08:16:42.132Z,10.46
2022-11-05T08:17:42.105Z,10.58
2022-11-05T08:18:42.041Z,10.51
2022-11-05T08:19:41.997Z,10.65
2022-11-05T08:20:41.947Z,10.64
2022-11-05T08:21:41.902Z,10.61
2022-11-05T08:22:41.859Z,10.76
2022-11-05T08:23:41.830Z,10.77
2022-11-05T08:24:41.767Z,10.87
2022-11-05T08:25:41.726Z,10.87
2022-11-05T08:26:41.676Z,10.86
2022-11-05T08:27:41.631Z,11.12
2022-11-05T08:28:41.587Z,11.00
2022-11-05T08:29:41.579Z,10.97
2022-11-05T08:30:41.498Z,10.90
2022-11-05T08:31:41.454Z,10.90
2022-11-05T08:32:41.403Z,10.83
2022-11-05T08:33:41.358Z,10.86
2022-11-05T08:34:41.313Z,10.92
2022-11-05T08:35:41.300Z,10.94
2022-11-05T08:36:41.223Z,10.97
2022-11-05T08:37:41.177Z,11.04
2022-11-05T08:38:41.132Z,11.12
2022-11-05T08:39:41.090Z,11.07
2022-11-05T08:40:41.043Z,10.90
2022-11-05T08:41:41.020Z,10.97
2022-11-05T08:42:40.949Z,10.97
2022-11-05T08:43:40.902Z,11.05
2022-11-05T08:44:40.881Z,11.13
2022-11-05T08:45:40.814Z,11.15
2022-11-05T08:46:41.850Z,11.20
2022-11-05T08:47:40.746Z,11.27
2022-11-05T08:48:40.680Z,11.41
2022-11-05T08:49:40.639Z,11.41
2022-11-05T08:50:40.593Z,11.56
2022-11-05T08:51:40.545Z,11.53
2022-11-05T08:52:40.499Z,11.53
2022-11-05T08:53:40.542Z,11.51
2022-11-05T08:54:40.440Z,11.53
2022-11-05T08:55:40.366Z,11.41
2022-11-05T08:56:40.377Z,11.40
2022-11-05T08:57:40.274Z,11.40
2022-11-05T08:58:40.226Z,11.34
2022-11-05T08:59:40.186Z,11.27
2022-11-05T09:00:40.294Z,11.31
2022-11-05T09:01:40.198Z,11.30
2022-11-05T09:02:40.110Z,11.23
2022-11-05T09:03:40.005Z,11.33
2022-11-05T09:04:39.962Z,11.44
2022-11-05T09:05:39.940Z,11.45
2022-11-05T09:06:39.874Z,11.49
2022-11-05T09:07:39.827Z,11.43
2022-11-05T09:08:39.785Z,11.51
2022-11-05T09:09:39.737Z,11.56
2022-11-05T09:10:39.693Z,11.51
2022-11-05T09:12:09.851Z,11.33
2022-11-05T09:12:39.598Z,11.26
2022-11-05T09:13:39.563Z,11.16
2022-11-05T09:14:39.516Z,11.16
2022-11-05T09:15:39.478Z,11.23
2022-11-05T09:16:39.421Z,11.22
2022-11-05T09:17:39.379Z,11.26
2022-11-05T09:18:39.333Z,11.27
2022-11-05T09:19:39.921Z,11.19
2022-11-05T09:20:39.244Z,11.08
2022-11-05T09:21:39.224Z,10.94
2022-11-05T09:22:43.134Z,11.02
2022-11-05T09:23:39.105Z,11.00
2022-11-05T09:24:39.060Z,10.95
2022-11-05T09:25:39.053Z,10.95
2022-11-05T09:26:38.971Z,10.98
2022-11-05T09:27:38.951Z,11.12
2022-11-05T09:28:38.887Z,11.02
2022-11-05T09:29:38.836Z,11.08
2022-11-05T09:30:38.816Z,11.13
2022-11-05T09:31:38.762Z,11.07
2022-11-05T09:32:38.700Z,11.13
2022-11-05T09:33:38.656Z,11.08
2022-11-05T09:34:38.609Z,11.13
2022-11-05T09:35:38.567Z,11.12
2022-11-05T09:36:38.532Z,11.20
2022-11-05T09:37:38.474Z,11.18
2022-11-05T09:38:38.425Z,11.05
2022-11-05T09:39:38.384Z,11.08
2022-11-05T09:40:38.338Z,11.13
2022-11-05T09:41:38.287Z,11.12
2022-11-05T09:42:38.267Z,11.13
2022-11-05T09:43:38.200Z,11.18
2022-11-05T09:44:38.151Z,11.13
2022-11-05T09:45:38.109Z,11.16
2022-11-05T09:46:38.062Z,11.08
2022-11-05T09:47:38.032Z,11.10
2022-11-05T09:48:37.967Z,11.16
2022-11-05T09:49:37.923Z,11.18
2022-11-05T09:50:37.879Z,11.13
2022-11-05T09:51:37.833Z,11.10
2022-11-05T09:52:37.790Z,11.08
2022-11-05T09:53:47.545Z,11.01
2022-11-05T09:54:37.701Z,11.10
2022-11-05T09:55:37.654Z,11.13
2022-11-05T09:56:37.607Z,11.12
2022-11-05T09:57:37.566Z,11.12
2022-11-05T09:58:37.514Z,11.13
2022-11-05T09:59:37.484Z,11.02
2022-11-05T10:00:37.425Z,10.95
2022-11-05T10:01:37.538Z,10.92
2022-11-05T10:02:37.415Z,11.00
2022-11-05T10:03:37.295Z,10.95
2022-11-05T10:04:37.251Z,11.15
2022-11-05T10:05:37.288Z,11.04
2022-11-05T10:06:37.202Z,11.04
2022-11-05T10:07:37.103Z,11.15
2022-11-05T10:08:37.065Z,11.23
2022-11-05T10:09:37.024Z,11.25
2022-11-05T10:10:40.844Z,11.40
2022-11-05T10:11:36.947Z,11.53
2022-11-05T10:12:36.880Z,11.56
2022-11-05T10:13:36.834Z,11.63
2022-11-05T10:14:36.790Z,11.60
2022-11-05T10:15:36.745Z,11.73
2022-11-05T10:16:36.704Z,11.74
2022-11-05T10:17:39.158Z,11.95
2022-11-05T10:18:36.636Z,12.12
2022-11-05T10:19:36.564Z,12.21
2022-11-05T10:20:36.525Z,12.36
2022-11-05T10:22:04.157Z,12.44
2022-11-05T10:22:36.430Z,12.57
2022-11-05T10:23:36.389Z,12.80
2022-11-05T10:24:36.344Z,13.05
2022-11-05T10:25:36.299Z,13.40
2022-11-05T10:26:36.258Z,13.65
2022-11-05T10:27:36.253Z,14.04
2022-11-05T10:28:36.165Z,14.37
2022-11-05T10:29:36.129Z,14.79
2022-11-05T10:30:36.081Z,15.18
2022-11-05T10:31:36.037Z,15.63
2022-11-05T10:32:36.006Z,15.78
2022-11-05T10:33:35.982Z,15.94
2022-11-05T10:34:35.918Z,15.96
2022-11-05T10:35:35.877Z,16.22
2022-11-05T10:36:35.837Z,16.44
2022-11-05T10:37:40.541Z,16.77
2022-11-05T10:38:35.790Z,16.79
2022-11-05T10:39:35.707Z,16.80
2022-11-05T10:40:35.711Z,16.76
2022-11-05T10:41:35.629Z,16.83
2022-11-05T10:42:35.591Z,16.77
2022-11-05T10:43:35.557Z,16.68
2022-11-05T10:44:35.549Z,16.65
2022-11-05T10:45:35.474Z,16.41
2022-11-05T10:46:35.425Z,16.32
2022-11-05T10:47:35.398Z,16.09
2022-11-05T10:48:38.143Z,15.98
2022-11-05T10:49:35.303Z,15.90
2022-11-05T10:50:35.279Z,15.88
2022-11-05T10:51:35.224Z,15.55
2022-11-05T10:52:35.177Z,15.50
2022-11-05T10:53:35.145Z,15.32
2022-11-05T10:54:35.099Z,15.05
2022-11-05T10:55:35.056Z,15.07
2022-11-05T10:56:35.024Z,14.89
2022-11-05T10:57:34.969Z,14.90
2022-11-05T10:58:44.084Z,14.78
2022-11-05T10:59:34.883Z,14.61
2022-11-05T11:00:34.857Z,14.52
2022-11-05T11:01:34.880Z,14.58
2022-11-05T11:02:34.862Z,14.58
2022-11-05T11:03:34.711Z,14.61
2022-11-05T11:04:37.848Z,14.55
2022-11-05T11:05:34.675Z,14.44
2022-11-05T11:06:34.598Z,14.44
2022-11-05T11:07:34.567Z,14.45
2022-11-05T11:08:34.502Z,14.31
2022-11-05T11:09:34.491Z,14.36
2022-11-05T11:10:34.428Z,14.19
2022-11-05T11:11:34.389Z,14.04
2022-11-05T11:12:38.287Z,14.05
2022-11-05T11:13:34.287Z,14.04
2022-11-05T11:14:34.248Z,14.04
2022-11-05T11:15:34.200Z,14.12
2022-11-05T11:16:34.160Z,14.12
2022-11-05T11:17:34.120Z,14.16
2022-11-05T11:18:38.949Z,14.18
2022-11-05T11:19:34.032Z,14.16
2022-11-05T11:20:33.986Z,14.11
2022-11-05T11:21:33.969Z,14.11
2022-11-05T11:22:33.905Z,14.15
2022-11-05T11:23:33.861Z,14.37
2022-11-05T11:24:33.839Z,14.36
2022-11-05T11:25:33.784Z,14.34
2022-11-05T11:26:33.738Z,14.22
2022-11-05T11:27:33.693Z,14.40
2022-11-05T11:28:33.650Z,14.33
2022-11-05T11:29:33.607Z,14.45
2022-11-05T11:30:33.589Z,14.59
2022-11-05T11:31:33.519Z,14.58
2022-11-05T11:32:33.479Z,14.59
2022-11-05T11:33:33.430Z,14.56
2022-11-05T11:34:33.387Z,14.68
2022-11-05T11:35:33.342Z,14.61
2022-11-05T11:36:33.319Z,14.63
2022-11-05T11:37:33.261Z,14.61
2022-11-05T11:38:33.218Z,14.55
2022-11-05T11:39:33.173Z,14.73
2022-11-05T11:40:33.127Z,14.71
2022-11-05T11:41:33.092Z,14.77
2022-11-05T11:42:33.070Z,14.77
2022-11-05T11:43:33.005Z,14.81
2022-11-05T11:44:32.958Z,14.90
2022-11-05T11:45:32.923Z,14.86
2022-11-05T11:46:32.875Z,14.86
2022-11-05T11:47:32.832Z,14.96
2022-11-05T11:48:32.804Z,14.93
2022-11-05T11:49:32.843Z,14.94
2022-11-05T11:50:32.723Z,14.94
2022-11-05T11:51:32.654Z,14.97
2022-11-05T11:52:32.613Z,14.87
2022-11-05T11:53:32.572Z,14.77
2022-11-05T11:54:32.570Z,14.81
2022-11-05T11:55:32.485Z,14.89
2022-11-05T11:56:32.452Z,15.04
2022-11-05T11:57:32.403Z,15.14
2022-11-05T11:58:32.366Z,15.18
2022-11-05T12:00:01.934Z,15.41
2022-11-05T12:00:32.292Z,15.55
2022-11-05T12:01:32.338Z,15.66
2022-11-05T12:02:32.293Z,15.65
2022-11-05T12:03:32.143Z,15.76
2022-11-05T12:04:32.107Z,15.83
2022-11-05T12:05:32.061Z,15.90
2022-11-05T12:06:32.056Z,15.88
2022-11-05T12:07:31.974Z,15.80
2022-11-05T12:08:31.933Z,15.94
2022-11-05T12:09:31.895Z,15.99
2022-11-05T12:10:31.851Z,16.06
2022-11-05T12:11:31.804Z,15.96
2022-11-05T12:12:32.031Z,15.85
2022-11-05T12:13:31.725Z,15.87
2022-11-05T12:14:31.685Z,15.85
2022-11-05T12:15:31.639Z,15.92
2022-11-05T12:16:31.592Z,15.91
2022-11-05T12:17:31.557Z,15.91
2022-11-05T12:18:31.535Z,15.98
2022-11-05T12:19:31.467Z,15.88
2022-11-05T12:20:31.425Z,15.92
2022-11-05T12:21:51.560Z,15.84
2022-11-05T12:22:31.340Z,15.81
2022-11-05T12:23:31.302Z,15.67
2022-11-05T12:24:31.274Z,15.72
2022-11-05T12:25:31.210Z,15.57
2022-11-05T12:26:31.168Z,15.60
2022-11-05T12:27:31.127Z,15.54
2022-11-05T12:28:31.082Z,15.60
2022-11-05T12:29:35.530Z,15.73
2022-11-05T12:30:31.007Z,15.70
2022-11-05T12:31:30.971Z,15.73
2022-11-05T12:32:30.961Z,15.70
2022-11-05T12:33:30.872Z,15.83
2022-11-05T12:34:30.830Z,15.88
2022-11-05T12:35:30.791Z,16.03
2022-11-05T12:36:30.766Z,16.13
2022-11-05T12:37:30.706Z,16.21
2022-11-05T12:38:30.658Z,16.17
2022-11-05T12:39:30.615Z,16.36
2022-11-05T12:40:30.575Z,16.26
2022-11-05T12:41:30.530Z,16.34
2022-11-05T12:42:30.514Z,16.40
2022-11-05T12:43:30.450Z,16.46
2022-11-05T12:44:30.404Z,16.57
2022-11-05T12:45:30.365Z,16.59
2022-11-05T12:46:30.323Z,16.66
2022-11-05T12:47:30.280Z,16.65
2022-11-05T12:48:35.822Z,16.62
2022-11-05T12:49:30.196Z,16.73
2022-11-05T12:50:30.163Z,16.86
2022-11-05T12:51:30.112Z,16.92
2022-11-05T12:52:30.093Z,16.95
2022-11-05T12:53:30.054Z,17.01
2022-11-05T12:54:29.987Z,17.01
2022-11-05T12:55:29.945Z,17.10
2022-11-05T12:56:29.906Z,17.02
2022-11-05T12:57:29.859Z,17.04
2022-11-05T12:58:29.838Z,17.14
2022-11-05T12:59:29.775Z,17.07
2022-11-05T13:00:29.731Z,17.04
2022-11-05T13:01:29.769Z,17.13
2022-11-05T13:02:29.701Z,17.04
2022-11-05T13:03:29.610Z,16.98
2022-11-05T13:04:29.594Z,16.99
2022-11-05T13:05:29.553Z,16.94